createdAt,value
2019-05-16T00:01:56.036Z,9.27
2019-05-16T00:04:28.461Z,9.47
2019-05-16T00:07:00.992Z,9.10
2019-05-16T00:09:33.398Z,9.57
2019-05-16T00:12:05.756Z,8.70
2019-05-16T00:14:38.631Z,9.57
2019-05-16T00:17:11.176Z,9.07
2019-05-16T00:19:43.757Z,9.60
2019-05-16T00:22:18.190Z,9.30
2019-05-16T00:24:50.452Z,9.23
2019-05-16T00:27:24.177Z,8.77
2019-05-16T00:29:58.176Z,8.43
2019-05-16T00:32:30.739Z,9.33
2019-05-16T00:35:03.252Z,9.40
2019-05-16T00:37:35.797Z,8.97
2019-05-16T00:40:08.381Z,9.60
2019-05-16T00:42:40.929Z,9.50
2019-05-16T00:45:13.655Z,9.20
2019-05-16T00:47:47.983Z,9.17
2019-05-16T00:50:20.323Z,9.23
2019-05-16T00:52:52.532Z,9.40
2019-05-16T00:55:25.233Z,9.00
2019-05-16T00:57:58.478Z,9.47
2019-05-16T01:00:56.350Z,9.47
2019-05-16T01:03:29.222Z,9.60
2019-05-16T01:06:01.738Z,9.30
2019-05-16T01:08:34.130Z,9.37
2019-05-16T01:11:07.950Z,9.30
2019-05-16T01:13:40.715Z,9.03
2019-05-16T01:16:13.376Z,9.07
2019-05-16T01:18:45.632Z,9.17
2019-05-16T01:21:18.585Z,9.00
2019-05-16T01:23:51.237Z,9.40
2019-05-16T01:26:23.477Z,8.87
2019-05-16T01:28:57.623Z,8.63
2019-05-16T01:31:29.653Z,8.83
2019-05-16T01:34:01.965Z,8.67
2019-05-16T01:36:39.947Z,8.53
2019-05-16T01:39:09.258Z,8.90
2019-05-16T01:41:41.979Z,8.80
2019-05-16T01:44:14.404Z,8.50
2019-05-16T01:46:48.096Z,8.87
2019-05-16T01:49:20.595Z,8.53
2019-05-16T01:51:53.115Z,8.50
2019-05-16T01:54:25.310Z,8.90
2019-05-16T01:56:59.456Z,8.60
2019-05-16T01:59:32.194Z,8.47
2019-05-16T02:02:04.698Z,8.50
2019-05-16T02:04:37.988Z,8.90
2019-05-16T02:07:10.679Z,8.53
2019-05-16T02:09:43.111Z,8.80
2019-05-16T02:12:15.360Z,7.87
2019-05-16T02:14:48.155Z,8.10
2019-05-16T02:17:20.791Z,8.37
2019-05-16T02:19:53.267Z,8.33
2019-05-16T02:22:25.741Z,8.47
2019-05-16T02:24:58.477Z,8.57
2019-05-16T02:27:31.774Z,8.33
2019-05-16T02:30:04.701Z,8.47
2019-05-16T02:32:37.146Z,8.10
2019-05-16T02:35:11.738Z,8.50
2019-05-16T02:37:43.989Z,8.53
2019-05-16T02:40:22.061Z,8.30
2019-05-16T02:42:56.331Z,8.50
2019-05-16T02:45:32.158Z,8.23
2019-05-16T02:48:02.844Z,8.10
2019-05-16T02:50:35.111Z,8.27
2019-05-16T02:53:07.345Z,8.43
2019-05-16T02:55:41.036Z,8.13
2019-05-16T02:58:13.933Z,8.43
2019-05-16T03:00:46.240Z,8.20
2019-05-16T03:03:21.272Z,8.57
2019-05-16T03:05:53.987Z,8.60
2019-05-16T03:08:27.170Z,8.50
2019-05-16T03:11:01.106Z,8.30
2019-05-16T03:13:35.671Z,8.40
2019-05-16T03:16:11.753Z,8.43
2019-05-16T03:18:45.222Z,8.07
2019-05-16T03:21:21.455Z,8.13
2019-05-16T03:23:52.759Z,8.37
2019-05-16T03:26:25.440Z,8.03
2019-05-16T03:29:00.753Z,8.27
2019-05-16T03:31:33.981Z,9.00
2019-05-16T03:34:07.852Z,8.27
2019-05-16T03:36:43.839Z,8.80
2019-05-16T03:39:13.985Z,8.60
2019-05-16T03:41:46.823Z,8.50
2019-05-16T03:44:21.084Z,8.53
2019-05-16T03:46:53.772Z,8.50
2019-05-16T03:49:26.388Z,8.60
2019-05-16T03:52:01.444Z,8.53
2019-05-16T03:54:33.011Z,8.30
2019-05-16T03:57:05.327Z,8.50
2019-05-16T03:59:40.716Z,8.47
2019-05-16T04:02:11.939Z,8.00
2019-05-16T04:04:44.418Z,8.50
2019-05-16T04:07:16.956Z,8.67
2019-05-16T04:09:50.763Z,8.50
2019-05-16T04:12:23.445Z,8.40
2019-05-16T04:14:55.881Z,8.30
2019-05-16T04:17:28.166Z,8.67
2019-05-16T04:20:01.967Z,8.30
2019-05-16T04:22:35.342Z,8.33
2019-05-16T04:25:10.881Z,8.50
2019-05-16T04:27:42.468Z,8.30
2019-05-16T04:30:15.043Z,8.47
2019-05-16T04:32:47.493Z,8.23
2019-05-16T04:35:21.428Z,8.60
2019-05-16T04:37:54.327Z,9.27
2019-05-16T04:40:26.655Z,9.33
2019-05-16T04:43:01.200Z,9.47
2019-05-16T04:45:34.395Z,8.80
2019-05-16T04:48:06.865Z,8.60
2019-05-16T04:50:41.918Z,8.70
2019-05-16T04:53:13.465Z,8.67
2019-05-16T04:55:46.105Z,8.40
2019-05-16T04:58:23.399Z,8.63
2019-05-16T05:00:53.267Z,8.30
2019-05-16T05:03:25.613Z,8.67
2019-05-16T05:06:01.265Z,8.70
2019-05-16T05:08:49.030Z,8.90
2019-05-16T05:11:10.482Z,8.67
2019-05-16T05:13:41.613Z,8.97
2019-05-16T05:16:13.877Z,8.30
2019-05-16T05:18:46.374Z,8.87
2019-05-16T05:21:20.918Z,8.30
2019-05-16T05:23:54.186Z,8.67
2019-05-16T05:26:26.750Z,8.43
2019-05-16T05:28:59.813Z,8.93
2019-05-16T05:31:35.613Z,8.50
2019-05-16T05:34:10.696Z,8.50
2019-05-16T05:36:43.381Z,8.70
2019-05-16T05:39:15.894Z,9.10
2019-05-16T05:41:50.465Z,8.73
2019-05-16T05:44:22.489Z,9.80
2019-05-16T05:46:55.922Z,9.30
2019-05-16T05:49:30.162Z,9.03
2019-05-16T05:52:02.666Z,9.33
2019-05-16T05:54:35.109Z,9.50
2019-05-16T05:57:09.930Z,9.20
2019-05-16T05:59:42.321Z,9.07
2019-05-16T06:02:14.728Z,9.20
2019-05-16T06:04:47.406Z,9.57
2019-05-16T06:07:20.500Z,9.47
2019-05-16T06:09:56.448Z,9.40
2019-05-16T06:12:30.087Z,9.23
2019-05-16T06:15:07.981Z,8.93
2019-05-16T06:17:40.021Z,9.20
2019-05-16T06:20:14.634Z,8.77
2019-05-16T06:22:46.613Z,9.00
2019-05-16T06:25:22.598Z,9.30
2019-05-16T06:27:53.063Z,9.20
2019-05-16T06:30:26.977Z,9.10
2019-05-16T06:32:59.901Z,8.90
2019-05-16T06:35:32.724Z,9.67
2019-05-16T06:38:05.253Z,9.33
2019-05-16T06:40:40.098Z,9.40
2019-05-16T06:45:34.294Z,9.43
2019-05-16T06:48:10.022Z,9.50
2019-05-16T06:50:42.876Z,9.60
2019-05-16T06:53:15.825Z,9.30
2019-05-16T06:55:49.759Z,10.00
2019-05-16T06:58:22.504Z,9.47
2019-05-16T07:00:55.157Z,9.53
2019-05-16T07:03:27.808Z,9.77
2019-05-16T07:06:00.787Z,9.07
2019-05-16T07:08:33.114Z,10.20
2019-05-16T07:11:06.151Z,9.93
2019-05-16T07:13:40.604Z,9.90
2019-05-16T07:16:13.280Z,9.80
2019-05-16T07:18:46.365Z,10.30
2019-05-16T07:21:20.169Z,9.73
2019-05-16T07:23:52.783Z,10.03
2019-05-16T07:26:25.810Z,10.17
2019-05-16T07:29:00.330Z,10.00
2019-05-16T07:31:32.813Z,10.40
2019-05-16T07:34:05.219Z,10.63
2019-05-16T07:36:40.571Z,10.50
2019-05-16T07:39:12.518Z,10.30
2019-05-16T07:41:45.167Z,10.17
2019-05-16T07:44:17.797Z,11.30
2019-05-16T07:46:51.596Z,10.73
2019-05-16T07:49:25.338Z,10.70
2019-05-16T07:52:00.406Z,10.60
2019-05-16T07:54:34.564Z,10.97
2019-05-16T07:57:16.162Z,10.30
2019-05-16T07:59:40.519Z,9.87
2019-05-16T08:02:12.990Z,10.57
2019-05-16T08:04:45.321Z,10.77
2019-05-16T08:07:19.873Z,10.47
2019-05-16T08:09:51.932Z,10.00
2019-05-16T08:12:26.484Z,10.30
2019-05-16T08:15:00.750Z,10.07
2019-05-16T08:17:32.745Z,10.10
2019-05-16T08:20:06.289Z,9.13
2019-05-16T08:22:41.305Z,11.97
2019-05-16T08:25:13.496Z,10.10
2019-05-16T08:27:46.435Z,11.80
2019-05-16T08:30:21.027Z,9.13
2019-05-16T08:32:53.111Z,9.07
2019-05-16T08:35:26.191Z,9.60
2019-05-16T08:38:01.173Z,10.73
2019-05-16T08:40:58.046Z,11.00
2019-05-16T08:43:07.601Z,12.57
2019-05-16T08:48:14.649Z,14.10
2019-05-16T08:50:53.913Z,19.03
2019-05-16T08:55:55.317Z,9.93
2019-05-16T08:58:32.681Z,8.17
2019-05-16T09:01:02.743Z,8.57
2019-05-16T09:03:36.643Z,8.50
2019-05-16T09:06:11.513Z,8.30
2019-05-16T09:08:43.620Z,8.57
2019-05-16T09:10:30.562Z,12.73
2019-05-16T09:11:33.809Z,8.50
2019-05-16T09:13:50.504Z,8.37
2019-05-16T09:16:22.875Z,8.00
2019-05-16T09:18:30.616Z,12.10
2019-05-16T09:18:57.545Z,8.30
2019-05-16T09:21:29.586Z,8.27
2019-05-16T09:24:02.948Z,8.53
2019-05-16T09:26:38.111Z,8.97
2019-05-16T09:29:09.495Z,8.67
2019-05-16T09:31:41.697Z,8.60
2019-05-16T09:34:13.988Z,8.50
2019-05-16T09:36:48.127Z,8.80
2019-05-16T09:39:20.838Z,9.00
2019-05-16T09:41:57.655Z,8.73
2019-05-16T09:44:27.594Z,8.20
2019-05-16T09:47:00.506Z,8.70
2019-05-16T09:49:32.870Z,8.43
2019-05-16T09:52:07.311Z,8.40
2019-05-16T09:54:39.418Z,8.77
2019-05-16T09:57:11.945Z,8.47
2019-05-16T09:59:46.380Z,8.53
2019-05-16T10:02:18.373Z,8.40
2019-05-16T10:04:51.174Z,8.00
2019-05-16T10:07:23.457Z,8.03
2019-05-16T10:09:57.062Z,8.00
2019-05-16T10:12:30.065Z,7.83
2019-05-16T10:15:02.672Z,8.47
2019-05-16T10:17:36.986Z,8.30
2019-05-16T10:20:11.033Z,8.60
2019-05-16T10:22:43.375Z,7.87
2019-05-16T10:25:19.045Z,8.37
2019-05-16T10:27:49.985Z,8.30
2019-05-16T10:30:22.534Z,8.33
2019-05-16T10:32:57.411Z,8.17
2019-05-16T10:35:30.262Z,8.23
2019-05-16T10:38:03.393Z,7.90
2019-05-16T10:40:37.082Z,8.10
2019-05-16T10:43:09.824Z,7.93
2019-05-16T10:45:42.343Z,8.03
2019-05-16T10:48:17.300Z,8.07
2019-05-16T10:50:50.346Z,7.90
2019-05-16T10:53:55.614Z,8.00
2019-05-16T10:55:58.519Z,7.87
2019-05-16T10:58:37.002Z,8.90
2019-05-16T11:01:19.527Z,8.70
2019-05-16T11:03:39.501Z,8.03
2019-05-16T11:06:24.650Z,7.67
2019-05-16T11:08:47.468Z,7.73
2019-05-16T11:11:20.150Z,7.70
2019-05-16T11:13:52.975Z,7.80
2019-05-16T11:16:27.554Z,7.67
2019-05-16T11:19:14.288Z,7.30
2019-05-16T11:21:37.053Z,7.37
2019-05-16T11:24:12.959Z,7.20
2019-05-16T11:26:43.582Z,7.13
2019-05-16T11:29:16.470Z,7.37
2019-05-16T11:31:50.285Z,7.30
2019-05-16T11:34:26.515Z,7.10
2019-05-16T11:36:59.613Z,7.07
2019-05-16T11:39:32.196Z,7.30
2019-05-16T11:42:04.757Z,6.83
2019-05-16T11:44:38.140Z,7.33
2019-05-16T11:47:10.826Z,7.03
2019-05-16T11:49:43.133Z,7.20
2019-05-16T11:52:17.845Z,7.03
2019-05-16T11:54:50.549Z,7.10
2019-05-16T11:57:23.493Z,7.20
2019-05-16T11:59:56.858Z,7.50
2019-05-16T12:02:30.504Z,7.40
2019-05-16T12:05:03.683Z,7.10
2019-05-16T12:07:43.777Z,7.30
2019-05-16T12:10:11.402Z,6.93
2019-05-16T12:12:43.807Z,7.50
2019-05-16T12:15:20.078Z,7.57
2019-05-16T12:18:02.043Z,7.53
2019-05-16T12:20:27.507Z,7.53
2019-05-16T12:23:01.023Z,7.37
2019-05-16T12:25:33.440Z,7.50
2019-05-16T12:28:08.179Z,7.80
2019-05-16T12:30:40.717Z,7.73
2019-05-16T12:33:13.637Z,7.17
2019-05-16T12:35:47.608Z,7.30
2019-05-16T12:38:20.736Z,7.30
2019-05-16T12:40:53.124Z,7.37
2019-05-16T12:43:43.714Z,7.17
2019-05-16T12:46:00.154Z,7.20
2019-05-16T12:48:32.805Z,7.00
2019-05-16T12:51:08.537Z,6.97
2019-05-16T12:53:40.678Z,6.57
2019-05-16T12:56:17.336Z,6.73
2019-05-16T12:58:50.796Z,7.20
2019-05-16T13:01:30.485Z,7.20
2019-05-16T13:03:56.698Z,7.03
2019-05-16T13:06:29.472Z,7.03
2019-05-16T13:09:02.025Z,7.17
2019-05-16T13:11:37.704Z,7.10
2019-05-16T13:14:11.540Z,6.67
2019-05-16T13:16:44.002Z,7.03
2019-05-16T13:19:18.225Z,6.83
2019-05-16T13:21:50.900Z,7.03
2019-05-16T13:24:23.759Z,7.10
2019-05-16T13:26:57.041Z,7.27
2019-05-16T13:29:30.101Z,7.23
2019-05-16T13:32:02.839Z,7.00
2019-05-16T13:34:38.046Z,6.90
2019-05-16T13:37:10.730Z,7.20
2019-05-16T13:39:43.332Z,7.10
2019-05-16T13:42:16.573Z,6.80
2019-05-16T13:44:49.585Z,7.07
2019-05-16T13:47:22.544Z,8.17
2019-05-16T13:49:54.786Z,7.90
2019-05-16T13:52:28.275Z,6.83
2019-05-16T13:55:01.979Z,6.80
2019-05-16T13:57:37.133Z,7.20
2019-05-16T14:00:10.298Z,6.30
2019-05-16T14:02:42.831Z,7.03
2019-05-16T14:05:17.931Z,7.40
2019-05-16T14:07:50.405Z,6.87
2019-05-16T14:10:23.167Z,7.13
2019-05-16T14:12:57.581Z,6.87
2019-05-16T14:15:29.962Z,7.20
2019-05-16T14:18:02.426Z,7.30
2019-05-16T14:20:37.392Z,6.97
2019-05-16T14:23:08.984Z,7.60
2019-05-16T14:25:41.710Z,7.07
2019-05-16T14:28:17.279Z,7.60
2019-05-16T14:30:48.803Z,7.03
2019-05-16T14:33:21.073Z,6.93
2019-05-16T14:35:56.386Z,7.07
2019-05-16T14:38:29.762Z,7.20
2019-05-16T14:41:08.168Z,7.20
2019-05-16T14:43:41.731Z,7.13
2019-05-16T14:46:18.407Z,7.47
2019-05-16T14:48:50.188Z,7.67
2019-05-16T14:51:22.869Z,7.27
2019-05-16T14:53:57.294Z,7.57
2019-05-16T14:56:30.173Z,6.63
2019-05-16T14:59:03.403Z,7.40
2019-05-16T15:01:37.706Z,7.70
2019-05-16T15:04:10.139Z,7.93
2019-05-16T15:06:42.719Z,8.17
2019-05-16T15:09:17.203Z,8.60
2019-05-16T15:11:49.352Z,8.80
2019-05-16T15:14:21.837Z,8.47
2019-05-16T15:16:54.320Z,8.77
2019-05-16T15:19:26.697Z,8.67
2019-05-16T15:22:02.499Z,8.77
2019-05-16T15:24:36.916Z,8.33
2019-05-16T15:27:08.838Z,8.90
2019-05-16T15:29:41.097Z,9.40
2019-05-16T15:32:13.596Z,9.37
2019-05-16T15:34:47.643Z,9.40
2019-05-16T15:37:20.787Z,9.53
2019-05-16T15:39:54.280Z,9.67
2019-05-16T15:42:27.939Z,9.10
2019-05-16T15:45:00.281Z,9.57
2019-05-16T15:47:32.769Z,10.10
2019-05-16T15:50:07.942Z,9.43
2019-05-16T15:52:40.183Z,9.20
2019-05-16T15:55:13.129Z,9.20
2019-05-16T15:57:47.559Z,8.97
2019-05-16T16:00:37.991Z,9.20
2019-05-16T16:03:10.650Z,9.30
2019-05-16T16:05:45.094Z,9.67
2019-05-16T16:08:18.519Z,9.47
2019-05-16T16:10:51.009Z,9.53
2019-05-16T16:13:23.670Z,9.40
2019-05-16T16:15:57.684Z,10.00
2019-05-16T16:18:31.277Z,9.93
2019-05-16T16:21:03.868Z,9.50
2019-05-16T16:23:37.428Z,9.30
2019-05-16T16:26:10.141Z,9.80
2019-05-16T16:28:42.689Z,9.87
2019-05-16T16:31:16.805Z,9.60
2019-05-16T16:33:50.631Z,9.30
2019-05-16T16:36:23.119Z,9.57
2019-05-16T16:38:56.761Z,10.10
2019-05-16T16:41:29.286Z,9.20
2019-05-16T16:44:01.667Z,9.37
2019-05-16T16:46:34.470Z,8.70
2019-05-16T16:49:07.526Z,9.10
2019-05-16T16:51:40.391Z,9.70
2019-05-16T16:54:12.908Z,9.20
2019-05-16T16:56:47.349Z,9.80
2019-05-16T16:59:20.056Z,8.93
2019-05-16T17:01:53.392Z,9.60
2019-05-16T17:04:26.696Z,9.03
2019-05-16T17:06:59.328Z,9.20
2019-05-16T17:09:31.761Z,9.20
2019-05-16T17:12:06.533Z,9.33
2019-05-16T17:14:38.578Z,9.30
2019-05-16T17:17:11.237Z,9.30
2019-05-16T17:19:43.813Z,9.37
2019-05-16T17:22:20.170Z,9.73
2019-05-16T17:24:50.274Z,9.77
2019-05-16T17:27:22.672Z,8.93
2019-05-16T17:29:56.840Z,9.13
2019-05-16T17:32:29.252Z,8.93
2019-05-16T17:35:01.801Z,9.30
2019-05-16T17:37:37.440Z,8.80
2019-05-16T17:40:09.829Z,8.87
2019-05-16T17:42:42.252Z,8.80
2019-05-16T17:45:18.136Z,10.03
2019-05-16T17:47:51.414Z,9.47
2019-05-16T17:50:26.192Z,9.20
2019-05-16T17:52:58.697Z,10.03
2019-05-16T17:55:31.271Z,9.93
2019-05-16T17:58:07.962Z,9.60
2019-05-16T18:00:37.944Z,9.17
2019-05-16T18:03:11.183Z,9.23
2019-05-16T18:05:43.652Z,9.43
2019-05-16T18:08:15.980Z,9.07
2019-05-16T18:10:48.749Z,9.10
2019-05-16T18:13:21.209Z,9.60
2019-05-16T18:15:53.461Z,9.50
2019-05-16T18:18:26.958Z,9.30
2019-05-16T18:21:02.342Z,9.53
2019-05-16T18:23:36.860Z,10.00
2019-05-16T18:26:10.442Z,9.93
2019-05-16T18:28:43.185Z,10.40
2019-05-16T18:31:17.241Z,10.03
2019-05-16T18:33:49.761Z,10.50
2019-05-16T18:36:22.080Z,10.37
2019-05-16T18:38:57.262Z,10.00
2019-05-16T18:41:29.105Z,9.83
2019-05-16T18:44:02.408Z,10.27
2019-05-16T18:46:36.296Z,10.00
2019-05-16T18:49:09.295Z,10.50
2019-05-16T18:51:42.004Z,10.53
2019-05-16T18:54:17.057Z,11.40
2019-05-16T18:56:48.530Z,10.37
2019-05-16T18:59:20.948Z,9.93
2019-05-16T19:01:54.619Z,10.63
2019-05-16T19:04:28.649Z,10.57
2019-05-16T19:07:03.013Z,11.67
2019-05-16T19:09:37.497Z,10.80
2019-05-16T19:12:13.828Z,10.10
2019-05-16T19:14:47.377Z,10.17
2019-05-16T19:17:24.758Z,11.13
2019-05-16T19:19:58.538Z,10.53
2019-05-16T19:22:33.777Z,10.67
2019-05-16T19:25:07.226Z,10.57
2019-05-16T19:27:41.444Z,10.53
2019-05-16T19:30:20.762Z,10.23
2019-05-16T19:32:57.358Z,11.17
2019-05-16T19:35:30.037Z,10.77
2019-05-16T19:38:03.483Z,11.73
2019-05-16T19:40:40.570Z,11.33
2019-05-16T19:43:11.809Z,11.60
2019-05-16T19:45:46.414Z,10.97
2019-05-16T19:48:18.673Z,11.27
2019-05-16T19:51:03.637Z,11.23
2019-05-16T19:53:40.327Z,10.73
2019-05-16T19:56:13.259Z,11.30
2019-05-16T19:58:46.821Z,11.10
2019-05-16T20:01:19.410Z,11.67
2019-05-16T20:03:52.418Z,11.97
2019-05-16T20:06:27.469Z,11.30
2019-05-16T20:09:02.930Z,11.70
2019-05-16T20:11:37.026Z,11.10
2019-05-16T20:14:09.412Z,11.60
2019-05-16T20:16:41.978Z,11.27
2019-05-16T20:19:14.892Z,12.00
2019-05-16T20:21:47.684Z,11.70
2019-05-16T20:24:22.063Z,11.53
2019-05-16T20:26:54.422Z,11.30
2019-05-16T20:29:27.362Z,11.00
2019-05-16T20:32:00.063Z,11.40
2019-05-16T20:34:32.393Z,11.23
2019-05-16T20:37:06.113Z,11.10
2019-05-16T20:39:38.723Z,11.83
2019-05-16T20:42:11.169Z,10.80
2019-05-16T20:44:43.700Z,11.80
2019-05-16T20:47:17.144Z,11.87
2019-05-16T20:49:51.250Z,12.17
2019-05-16T20:52:23.632Z,12.43
2019-05-16T20:54:57.931Z,13.13
2019-05-16T20:57:32.097Z,12.03
2019-05-16T21:00:06.848Z,12.20
2019-05-16T21:02:40.100Z,13.53
2019-05-16T21:05:13.107Z,13.77
2019-05-16T21:07:48.865Z,13.03
2019-05-16T21:10:21.520Z,13.40
2019-05-16T21:12:53.864Z,12.40
2019-05-16T21:15:26.408Z,12.30
2019-05-16T21:17:58.939Z,12.67
2019-05-16T21:20:31.201Z,12.53
2019-05-16T21:23:03.515Z,13.10
2019-05-16T21:25:37.166Z,12.20
2019-05-16T21:28:10.652Z,13.43
2019-05-16T21:30:43.616Z,13.00
2019-05-16T21:33:16.525Z,12.77
2019-05-16T21:35:49.988Z,13.50
2019-05-16T21:38:22.586Z,12.73
2019-05-16T21:40:58.212Z,12.70
2019-05-16T21:43:30.493Z,12.93
2019-05-16T21:46:03.016Z,12.87
2019-05-16T21:48:37.012Z,12.97
2019-05-16T21:51:09.513Z,13.00
2019-05-16T21:53:41.798Z,12.40
2019-05-16T21:56:13.958Z,13.00
2019-05-16T21:58:47.455Z,12.87
2019-05-16T22:01:22.369Z,12.40
2019-05-16T22:03:56.580Z,12.60
2019-05-16T22:06:30.432Z,13.43
2019-05-16T22:09:03.123Z,12.80
2019-05-16T22:11:37.306Z,12.97
2019-05-16T22:14:11.583Z,13.07
2019-05-16T22:16:46.660Z,12.33
2019-05-16T22:19:19.808Z,13.47
2019-05-16T22:21:53.457Z,13.30
2019-05-16T22:24:26.559Z,13.27
2019-05-16T22:26:59.330Z,13.47
2019-05-16T22:29:32.530Z,13.40
2019-05-16T22:32:07.113Z,13.90
2019-05-16T22:34:39.517Z,14.03
2019-05-16T22:37:11.971Z,13.07
2019-05-16T22:39:44.277Z,13.27
2019-05-16T22:42:17.645Z,13.23
2019-05-16T22:44:50.186Z,13.57
2019-05-16T22:47:22.531Z,13.00
2019-05-16T22:49:56.712Z,13.17
2019-05-16T22:52:28.953Z,12.87
2019-05-16T22:55:01.353Z,12.73
2019-05-16T22:57:33.689Z,12.87
2019-05-16T23:00:07.583Z,12.57
2019-05-16T23:02:42.088Z,12.63
2019-05-16T23:05:16.669Z,12.37
2019-05-16T23:08:02.081Z,12.50
2019-05-16T23:10:25.054Z,12.57
2019-05-16T23:12:57.654Z,12.17
2019-05-16T23:15:30.033Z,12.47
2019-05-16T23:18:02.361Z,12.13
2019-05-16T23:20:36.973Z,13.43
2019-05-16T23:23:09.619Z,12.80
2019-05-16T23:25:42.081Z,12.37
2019-05-16T23:28:16.664Z,12.90
2019-05-16T23:30:48.902Z,13.17
2019-05-16T23:33:22.376Z,13.13
2019-05-16T23:35:54.681Z,13.77
2019-05-16T23:38:27.643Z,14.57
2019-05-16T23:41:00.159Z,14.67
2019-05-16T23:43:32.693Z,14.50
2019-05-16T23:46:07.127Z,14.93
2019-05-16T23:48:39.873Z,14.90
2019-05-16T23:51:12.570Z,14.33
2019-05-16T23:53:46.423Z,14.87
2019-05-16T23:56:19.912Z,14.87
2019-05-16T23:58:52.397Z,14.23
